sensor_id;sensor_type;location;lat;lon;timestamp;P1;durP1;ratioP1;P2;durP2;ratioP2
27925;SDS011;15267;47.838;12.128;2022-12-16T00:01:39;45.70;;;25.52;;
27925;SDS011;15267;47.838;12.128;2022-12-16T00:04:05;51.75;;;28.95;;
27925;SDS011;15267;47.838;12.128;2022-12-16T00:06:32;52.33;;;28.08;;
27925;SDS011;15267;47.838;12.128;2022-12-16T00:08:58;53.15;;;29.63;;
27925;SDS011;15267;47.838;12.128;2022-12-16T00:11:25;53.42;;;28.50;;
27925;SDS011;15267;47.838;12.128;2022-12-16T00:13:51;50.85;;;28.95;;
27925;SDS011;15267;47.838;12.128;2022-12-16T00:16:17;49.58;;;27.40;;
27925;SDS011;15267;47.838;12.128;2022-12-16T00:18:44;51.05;;;28.35;;
27925;SDS011;15267;47.838;12.128;2022-12-16T00:21:10;53.75;;;28.92;;
27925;SDS011;15267;47.838;12.128;2022-12-16T00:23:36;58.75;;;30.92;;
27925;SDS011;15267;47.838;12.128;2022-12-16T00:26:03;54.45;;;29.88;;
27925;SDS011;15267;47.838;12.128;2022-12-16T00:28:29;54.80;;;30.55;;
27925;SDS011;15267;47.838;12.128;2022-12-16T00:30:55;58.70;;;31.45;;
27925;SDS011;15267;47.838;12.128;2022-12-16T00:33:22;61.13;;;31.38;;
27925;SDS011;15267;47.838;12.128;2022-12-16T00:35:48;58.72;;;31.20;;
27925;SDS011;15267;47.838;12.128;2022-12-16T00:38:14;56.90;;;29.38;;
27925;SDS011;15267;47.838;12.128;2022-12-16T00:40:40;56.03;;;31.42;;
27925;SDS011;15267;47.838;12.128;2022-12-16T00:43:07;54.28;;;30.02;;
27925;SDS011;15267;47.838;12.128;2022-12-16T00:45:33;54.83;;;30.42;;
27925;SDS011;15267;47.838;12.128;2022-12-16T00:47:59;47.30;;;28.05;;
27925;SDS011;15267;47.838;12.128;2022-12-16T00:50:25;51.40;;;28.58;;
27925;SDS011;15267;47.838;12.128;2022-12-16T00:52:51;47.45;;;28.33;;
27925;SDS011;15267;47.838;12.128;2022-12-16T00:55:17;50.03;;;28.48;;
27925;SDS011;15267;47.838;12.128;2022-12-16T00:57:43;45.05;;;25.88;;
27925;SDS011;15267;47.838;12.128;2022-12-16T01:00:10;47.25;;;26.88;;
27925;SDS011;15267;47.838;12.128;2022-12-16T01:02:44;44.03;;;25.92;;
27925;SDS011;15267;47.838;12.128;2022-12-16T01:07:36;43.15;;;24.75;;
27925;SDS011;15267;47.838;12.128;2022-12-16T01:10:03;44.95;;;26.35;;
27925;SDS011;15267;47.838;12.128;2022-12-16T01:12:30;44.10;;;25.40;;
27925;SDS011;15267;47.838;12.128;2022-12-16T01:14:56;45.00;;;26.25;;
27925;SDS011;15267;47.838;12.128;2022-12-16T01:17:22;55.00;;;30.63;;
27925;SDS011;15267;47.838;12.128;2022-12-16T01:19:50;42.78;;;24.60;;
27925;SDS011;15267;47.838;12.128;2022-12-16T01:22:16;44.03;;;26.25;;
27925;SDS011;15267;47.838;12.128;2022-12-16T01:24:42;41.45;;;24.30;;
27925;SDS011;15267;47.838;12.128;2022-12-16T01:27:09;46.42;;;27.70;;
27925;SDS011;15267;47.838;12.128;2022-12-16T01:29:35;37.90;;;23.65;;
27925;SDS011;15267;47.838;12.128;2022-12-16T01:32:01;38.28;;;23.73;;
27925;SDS011;15267;47.838;12.128;2022-12-16T01:34:27;42.08;;;25.90;;
27925;SDS011;15267;47.838;12.128;2022-12-16T01:36:53;45.05;;;25.60;;
27925;SDS011;15267;47.838;12.128;2022-12-16T01:39:19;40.80;;;25.48;;
27925;SDS011;15267;47.838;12.128;2022-12-16T01:41:45;42.22;;;25.52;;
27925;SDS011;15267;47.838;12.128;2022-12-16T01:44:12;38.33;;;24.13;;
27925;SDS011;15267;47.838;12.128;2022-12-16T01:46:38;39.30;;;24.48;;
27925;SDS011;15267;47.838;12.128;2022-12-16T01:49:07;44.53;;;26.48;;
27925;SDS011;15267;47.838;12.128;2022-12-16T01:51:37;44.97;;;25.48;;
27925;SDS011;15267;47.838;12.128;2022-12-16T01:54:06;40.85;;;25.33;;
27925;SDS011;15267;47.838;12.128;2022-12-16T01:56:32;37.60;;;23.65;;
27925;SDS011;15267;47.838;12.128;2022-12-16T01:58:59;41.85;;;25.25;;
27925;SDS011;15267;47.838;12.128;2022-12-16T02:01:26;48.45;;;28.05;;
27925;SDS011;15267;47.838;12.128;2022-12-16T02:03:53;44.40;;;25.98;;
27925;SDS011;15267;47.838;12.128;2022-12-16T02:06:19;42.88;;;25.50;;
27925;SDS011;15267;47.838;12.128;2022-12-16T02:08:45;45.25;;;25.83;;
27925;SDS011;15267;47.838;12.128;2022-12-16T02:11:27;49.17;;;27.50;;
27925;SDS011;15267;47.838;12.128;2022-12-16T02:16:42;45.25;;;26.42;;
27925;SDS011;15267;47.838;12.128;2022-12-16T02:27:57;44.70;;;27.13;;
27925;SDS011;15267;47.838;12.128;2022-12-16T02:33:17;46.22;;;26.95;;
27925;SDS011;15267;47.838;12.128;2022-12-16T02:35:54;51.67;;;28.88;;
27925;SDS011;15267;47.838;12.128;2022-12-16T02:41:24;45.92;;;25.83;;
27925;SDS011;15267;47.838;12.128;2022-12-16T02:44:03;49.22;;;28.67;;
27925;SDS011;15267;47.838;12.128;2022-12-16T02:46:30;41.92;;;25.55;;
27925;SDS011;15267;47.838;12.128;2022-12-16T02:51:39;44.63;;;25.95;;
27925;SDS011;15267;47.838;12.128;2022-12-16T02:54:06;41.55;;;25.63;;
27925;SDS011;15267;47.838;12.128;2022-12-16T02:56:40;44.33;;;25.58;;
27925;SDS011;15267;47.838;12.128;2022-12-16T02:59:13;44.95;;;27.23;;
27925;SDS011;15267;47.838;12.128;2022-12-16T03:01:45;46.75;;;27.25;;
27925;SDS011;15267;47.838;12.128;2022-12-16T03:04:15;44.97;;;26.85;;
27925;SDS011;15267;47.838;12.128;2022-12-16T03:06:44;47.17;;;25.88;;
27925;SDS011;15267;47.838;12.128;2022-12-16T03:09:12;46.33;;;27.42;;
27925;SDS011;15267;47.838;12.128;2022-12-16T03:11:40;49.10;;;28.45;;
27925;SDS011;15267;47.838;12.128;2022-12-16T03:14:09;47.95;;;26.92;;
27925;SDS011;15267;47.838;12.128;2022-12-16T03:16:38;48.17;;;28.55;;
27925;SDS011;15267;47.838;12.128;2022-12-16T03:19:05;46.67;;;27.50;;
27925;SDS011;15267;47.838;12.128;2022-12-16T03:21:37;42.90;;;24.75;;
27925;SDS011;15267;47.838;12.128;2022-12-16T03:24:07;43.30;;;25.85;;
27925;SDS011;15267;47.838;12.128;2022-12-16T03:29:05;49.00;;;27.27;;
27925;SDS011;15267;47.838;12.128;2022-12-16T03:31:37;41.88;;;24.90;;
27925;SDS011;15267;47.838;12.128;2022-12-16T03:34:08;52.90;;;29.83;;
27925;SDS011;15267;47.838;12.128;2022-12-16T03:36:36;45.20;;;27.02;;
27925;SDS011;15267;47.838;12.128;2022-12-16T03:39:03;47.60;;;26.50;;
27925;SDS011;15267;47.838;12.128;2022-12-16T03:41:30;43.83;;;25.27;;
27925;SDS011;15267;47.838;12.128;2022-12-16T03:43:57;43.45;;;26.02;;
27925;SDS011;15267;47.838;12.128;2022-12-16T03:46:23;43.33;;;24.60;;
27925;SDS011;15267;47.838;12.128;2022-12-16T03:48:50;45.40;;;26.90;;
27925;SDS011;15267;47.838;12.128;2022-12-16T03:51:16;49.20;;;28.88;;
27925;SDS011;15267;47.838;12.128;2022-12-16T03:53:43;44.67;;;27.25;;
27925;SDS011;15267;47.838;12.128;2022-12-16T03:56:09;40.72;;;25.23;;
27925;SDS011;15267;47.838;12.128;2022-12-16T03:58:35;45.08;;;27.20;;
27925;SDS011;15267;47.838;12.128;2022-12-16T04:01:03;50.17;;;28.77;;
27925;SDS011;15267;47.838;12.128;2022-12-16T04:03:29;44.97;;;26.42;;
27925;SDS011;15267;47.838;12.128;2022-12-16T04:05:55;48.20;;;28.30;;
27925;SDS011;15267;47.838;12.128;2022-12-16T04:08:21;55.22;;;30.10;;
27925;SDS011;15267;47.838;12.128;2022-12-16T04:10:51;50.83;;;30.35;;
27925;SDS011;15267;47.838;12.128;2022-12-16T04:13:35;47.88;;;26.75;;
27925;SDS011;15267;47.838;12.128;2022-12-16T04:16:20;40.50;;;23.63;;
27925;SDS011;15267;47.838;12.128;2022-12-16T04:19:05;40.53;;;23.70;;
27925;SDS011;15267;47.838;12.128;2022-12-16T04:21:49;43.75;;;24.60;;
27925;SDS011;15267;47.838;12.128;2022-12-16T04:24:34;46.10;;;27.35;;
27925;SDS011;15267;47.838;12.128;2022-12-16T04:27:00;43.70;;;26.20;;
27925;SDS011;15267;47.838;12.128;2022-12-16T04:29:45;46.92;;;27.60;;
27925;SDS011;15267;47.838;12.128;2022-12-16T04:32:29;50.42;;;26.98;;
27925;SDS011;15267;47.838;12.128;2022-12-16T04:35:16;55.83;;;28.98;;
27925;SDS011;15267;47.838;12.128;2022-12-16T04:38:00;53.53;;;28.13;;
27925;SDS011;15267;47.838;12.128;2022-12-16T04:40:45;44.78;;;26.45;;
27925;SDS011;15267;47.838;12.128;2022-12-16T04:43:30;40.33;;;24.98;;
27925;SDS011;15267;47.838;12.128;2022-12-16T04:46:14;50.78;;;27.65;;
27925;SDS011;15267;47.838;12.128;2022-12-16T04:48:59;53.53;;;27.42;;
27925;SDS011;15267;47.838;12.128;2022-12-16T04:51:43;51.80;;;27.70;;
27925;SDS011;15267;47.838;12.128;2022-12-16T04:54:28;48.15;;;27.10;;
27925;SDS011;15267;47.838;12.128;2022-12-16T04:57:12;53.13;;;27.95;;
27925;SDS011;15267;47.838;12.128;2022-12-16T04:59:57;54.45;;;28.02;;
27925;SDS011;15267;47.838;12.128;2022-12-16T05:02:42;55.60;;;28.77;;
27925;SDS011;15267;47.838;12.128;2022-12-16T05:05:26;53.10;;;28.55;;
27925;SDS011;15267;47.838;12.128;2022-12-16T05:08:11;46.30;;;27.05;;
27925;SDS011;15267;47.838;12.128;2022-12-16T05:10:55;57.40;;;28.88;;
27925;SDS011;15267;47.838;12.128;2022-12-16T05:13:40;67.53;;;31.77;;
27925;SDS011;15267;47.838;12.128;2022-12-16T05:16:24;56.60;;;27.60;;
27925;SDS011;15267;47.838;12.128;2022-12-16T05:19:09;49.72;;;26.90;;
27925;SDS011;15267;47.838;12.128;2022-12-16T05:21:53;53.03;;;27.90;;
27925;SDS011;15267;47.838;12.128;2022-12-16T05:24:38;45.63;;;25.73;;
27925;SDS011;15267;47.838;12.128;2022-12-16T05:27:22;45.50;;;24.42;;
27925;SDS011;15267;47.838;12.128;2022-12-16T05:30:07;45.85;;;25.33;;
27925;SDS011;15267;47.838;12.128;2022-12-16T05:32:52;45.15;;;24.88;;
27925;SDS011;15267;47.838;12.128;2022-12-16T05:35:37;43.53;;;25.45;;
27925;SDS011;15267;47.838;12.128;2022-12-16T05:38:21;48.17;;;26.35;;
27925;SDS011;15267;47.838;12.128;2022-12-16T05:41:06;49.55;;;27.23;;
27925;SDS011;15267;47.838;12.128;2022-12-16T05:43:50;52.00;;;28.10;;
27925;SDS011;15267;47.838;12.128;2022-12-16T05:46:35;51.65;;;27.67;;
27925;SDS011;15267;47.838;12.128;2022-12-16T05:49:19;52.38;;;27.52;;
27925;SDS011;15267;47.838;12.128;2022-12-16T05:52:04;54.70;;;28.20;;
27925;SDS011;15267;47.838;12.128;2022-12-16T05:54:48;55.03;;;29.02;;
27925;SDS011;15267;47.838;12.128;2022-12-16T05:57:33;59.92;;;30.45;;
27925;SDS011;15267;47.838;12.128;2022-12-16T06:00:17;59.67;;;29.90;;
27925;SDS011;15267;47.838;12.128;2022-12-16T06:03:02;53.40;;;28.42;;
27925;SDS011;15267;47.838;12.128;2022-12-16T06:05:47;63.30;;;31.27;;
27925;SDS011;15267;47.838;12.128;2022-12-16T06:08:31;55.65;;;29.25;;
27925;SDS011;15267;47.838;12.128;2022-12-16T06:11:16;49.03;;;27.30;;
27925;SDS011;15267;47.838;12.128;2022-12-16T06:14:00;52.15;;;27.38;;
27925;SDS011;15267;47.838;12.128;2022-12-16T06:16:52;53.20;;;28.23;;
27925;SDS011;15267;47.838;12.128;2022-12-16T06:19:37;61.95;;;35.72;;
27925;SDS011;15267;47.838;12.128;2022-12-16T06:22:22;66.35;;;37.45;;
27925;SDS011;15267;47.838;12.128;2022-12-16T06:25:06;77.43;;;46.35;;
27925;SDS011;15267;47.838;12.128;2022-12-16T06:27:51;67.93;;;36.25;;
27925;SDS011;15267;47.838;12.128;2022-12-16T06:30:36;75.85;;;38.25;;
27925;SDS011;15267;47.838;12.128;2022-12-16T06:33:21;59.70;;;31.60;;
27925;SDS011;15267;47.838;12.128;2022-12-16T06:36:06;53.95;;;29.08;;
27925;SDS011;15267;47.838;12.128;2022-12-16T06:38:50;48.05;;;27.80;;
27925;SDS011;15267;47.838;12.128;2022-12-16T06:41:35;55.72;;;28.60;;
27925;SDS011;15267;47.838;12.128;2022-12-16T06:44:20;52.00;;;27.55;;
27925;SDS011;15267;47.838;12.128;2022-12-16T06:47:04;53.38;;;28.30;;
27925;SDS011;15267;47.838;12.128;2022-12-16T06:49:49;59.60;;;28.80;;
27925;SDS011;15267;47.838;12.128;2022-12-16T06:52:33;43.55;;;25.02;;
27925;SDS011;15267;47.838;12.128;2022-12-16T06:55:18;45.83;;;26.10;;
27925;SDS011;15267;47.838;12.128;2022-12-16T06:58:02;43.20;;;24.52;;
27925;SDS011;15267;47.838;12.128;2022-12-16T07:00:47;43.65;;;25.92;;
27925;SDS011;15267;47.838;12.128;2022-12-16T07:03:32;37.22;;;22.98;;
27925;SDS011;15267;47.838;12.128;2022-12-16T07:06:16;32.75;;;20.45;;
27925;SDS011;15267;47.838;12.128;2022-12-16T07:09:14;31.42;;;21.92;;
27925;SDS011;15267;47.838;12.128;2022-12-16T07:11:59;33.33;;;23.23;;
27925;SDS011;15267;47.838;12.128;2022-12-16T07:14:44;31.65;;;22.55;;
27925;SDS011;15267;47.838;12.128;2022-12-16T07:17:28;23.20;;;16.17;;
27925;SDS011;15267;47.838;12.128;2022-12-16T07:20:13;34.10;;;24.25;;
27925;SDS011;15267;47.838;12.128;2022-12-16T07:22:58;35.53;;;25.00;;
27925;SDS011;15267;47.838;12.128;2022-12-16T07:25:42;34.03;;;24.83;;
27925;SDS011;15267;47.838;12.128;2022-12-16T07:28:27;37.53;;;25.83;;
27925;SDS011;15267;47.838;12.128;2022-12-16T07:31:11;37.75;;;26.13;;
27925;SDS011;15267;47.838;12.128;2022-12-16T07:33:56;35.75;;;24.58;;
27925;SDS011;15267;47.838;12.128;2022-12-16T07:36:40;36.55;;;25.88;;
27925;SDS011;15267;47.838;12.128;2022-12-16T07:39:25;38.47;;;25.98;;
27925;SDS011;15267;47.838;12.128;2022-12-16T07:42:09;38.17;;;26.77;;
27925;SDS011;15267;47.838;12.128;2022-12-16T07:44:54;36.05;;;25.42;;
27925;SDS011;15267;47.838;12.128;2022-12-16T07:47:45;37.33;;;26.75;;
27925;SDS011;15267;47.838;12.128;2022-12-16T07:50:30;37.38;;;25.50;;
27925;SDS011;15267;47.838;12.128;2022-12-16T07:53:14;37.65;;;26.65;;
27925;SDS011;15267;47.838;12.128;2022-12-16T07:55:59;39.55;;;25.90;;
27925;SDS011;15267;47.838;12.128;2022-12-16T07:58:43;37.58;;;26.90;;
27925;SDS011;15267;47.838;12.128;2022-12-16T08:01:28;39.03;;;26.83;;
27925;SDS011;15267;47.838;12.128;2022-12-16T08:04:13;36.95;;;24.98;;
27925;SDS011;15267;47.838;12.128;2022-12-16T08:06:58;36.10;;;25.33;;
27925;SDS011;15267;47.838;12.128;2022-12-16T08:09:43;33.95;;;25.35;;
27925;SDS011;15267;47.838;12.128;2022-12-16T08:12:27;35.33;;;24.75;;
27925;SDS011;15267;47.838;12.128;2022-12-16T08:15:12;33.33;;;24.15;;
27925;SDS011;15267;47.838;12.128;2022-12-16T08:17:56;33.28;;;22.92;;
27925;SDS011;15267;47.838;12.128;2022-12-16T08:20:41;35.30;;;24.67;;
27925;SDS011;15267;47.838;12.128;2022-12-16T08:23:26;33.55;;;24.95;;
27925;SDS011;15267;47.838;12.128;2022-12-16T08:26:10;34.42;;;23.70;;
27925;SDS011;15267;47.838;12.128;2022-12-16T08:28:55;37.35;;;26.27;;
27925;SDS011;15267;47.838;12.128;2022-12-16T08:31:39;38.80;;;28.85;;
27925;SDS011;15267;47.838;12.128;2022-12-16T08:34:24;36.08;;;25.85;;
27925;SDS011;15267;47.838;12.128;2022-12-16T08:37:09;36.15;;;25.52;;
27925;SDS011;15267;47.838;12.128;2022-12-16T08:39:54;35.28;;;24.85;;
27925;SDS011;15267;47.838;12.128;2022-12-16T08:42:38;35.00;;;25.15;;
27925;SDS011;15267;47.838;12.128;2022-12-16T08:45:23;37.92;;;26.80;;
27925;SDS011;15267;47.838;12.128;2022-12-16T08:48:08;34.75;;;25.00;;
27925;SDS011;15267;47.838;12.128;2022-12-16T08:50:53;35.45;;;24.92;;
27925;SDS011;15267;47.838;12.128;2022-12-16T08:53:37;34.80;;;24.20;;
27925;SDS011;15267;47.838;12.128;2022-12-16T08:56:22;33.67;;;25.20;;
27925;SDS011;15267;47.838;12.128;2022-12-16T08:59:06;33.10;;;24.30;;
27925;SDS011;15267;47.838;12.128;2022-12-16T09:01:51;30.85;;;23.60;;
27925;SDS011;15267;47.838;12.128;2022-12-16T09:04:35;39.03;;;25.67;;
27925;SDS011;15267;47.838;12.128;2022-12-16T09:07:20;32.45;;;22.98;;
27925;SDS011;15267;47.838;12.128;2022-12-16T09:10:05;37.42;;;26.48;;
27925;SDS011;15267;47.838;12.128;2022-12-16T09:12:50;33.95;;;24.50;;
27925;SDS011;15267;47.838;12.128;2022-12-16T09:15:34;34.10;;;25.85;;
27925;SDS011;15267;47.838;12.128;2022-12-16T09:18:19;34.10;;;24.48;;
27925;SDS011;15267;47.838;12.128;2022-12-16T09:21:03;30.45;;;22.63;;
27925;SDS011;15267;47.838;12.128;2022-12-16T09:23:48;38.60;;;28.05;;
27925;SDS011;15267;47.838;12.128;2022-12-16T09:26:32;38.67;;;27.92;;
27925;SDS011;15267;47.838;12.128;2022-12-16T09:29:17;39.58;;;27.77;;
27925;SDS011;15267;47.838;12.128;2022-12-16T09:32:01;37.08;;;26.25;;
27925;SDS011;15267;47.838;12.128;2022-12-16T09:34:46;38.20;;;25.20;;
27925;SDS011;15267;47.838;12.128;2022-12-16T09:37:30;37.42;;;26.00;;
27925;SDS011;15267;47.838;12.128;2022-12-16T09:40:15;35.03;;;25.77;;
27925;SDS011;15267;47.838;12.128;2022-12-16T09:43:07;33.67;;;24.33;;
27925;SDS011;15267;47.838;12.128;2022-12-16T09:48:59;35.72;;;26.00;;
27925;SDS011;15267;47.838;12.128;2022-12-16T09:51:47;34.25;;;25.35;;
27925;SDS011;15267;47.838;12.128;2022-12-16T09:54:33;34.97;;;25.63;;
27925;SDS011;15267;47.838;12.128;2022-12-16T09:57:18;34.78;;;24.60;;
27925;SDS011;15267;47.838;12.128;2022-12-16T10:00:05;32.85;;;25.08;;
27925;SDS011;15267;47.838;12.128;2022-12-16T10:02:50;34.13;;;25.25;;
27925;SDS011;15267;47.838;12.128;2022-12-16T10:05:58;40.17;;;27.98;;
27925;SDS011;15267;47.838;12.128;2022-12-16T10:08:42;42.00;;;30.60;;
27925;SDS011;15267;47.838;12.128;2022-12-16T10:14:35;37.15;;;26.88;;
27925;SDS011;15267;47.838;12.128;2022-12-16T10:17:23;42.33;;;30.38;;
27925;SDS011;15267;47.838;12.128;2022-12-16T10:23:16;47.47;;;32.45;;
27925;SDS011;15267;47.838;12.128;2022-12-16T10:28:54;45.97;;;31.27;;
27925;SDS011;15267;47.838;12.128;2022-12-16T10:31:41;46.22;;;32.20;;
27925;SDS011;15267;47.838;12.128;2022-12-16T10:34:29;45.25;;;31.40;;
27925;SDS011;15267;47.838;12.128;2022-12-16T10:37:20;51.85;;;33.97;;
27925;SDS011;15267;47.838;12.128;2022-12-16T10:40:05;48.28;;;32.95;;
27925;SDS011;15267;47.838;12.128;2022-12-16T10:43:01;48.33;;;32.40;;
27925;SDS011;15267;47.838;12.128;2022-12-16T10:45:48;51.47;;;33.63;;
27925;SDS011;15267;47.838;12.128;2022-12-16T10:48:33;49.78;;;32.72;;
27925;SDS011;15267;47.838;12.128;2022-12-16T10:51:19;53.38;;;35.33;;
27925;SDS011;15267;47.838;12.128;2022-12-16T10:54:26;56.67;;;36.75;;
27925;SDS011;15267;47.838;12.128;2022-12-16T11:00:13;55.88;;;35.92;;
27925;SDS011;15267;47.838;12.128;2022-12-16T11:03:15;55.97;;;37.05;;
27925;SDS011;15267;47.838;12.128;2022-12-16T11:06:00;56.40;;;37.53;;
27925;SDS011;15267;47.838;12.128;2022-12-16T11:08:45;57.90;;;38.03;;
27925;SDS011;15267;47.838;12.128;2022-12-16T11:11:30;54.83;;;35.78;;
27925;SDS011;15267;47.838;12.128;2022-12-16T11:17:24;52.53;;;35.08;;
27925;SDS011;15267;47.838;12.128;2022-12-16T11:23:27;60.55;;;40.15;;
27925;SDS011;15267;47.838;12.128;2022-12-16T11:26:09;60.67;;;38.72;;
27925;SDS011;15267;47.838;12.128;2022-12-16T11:29:02;55.88;;;35.90;;
27925;SDS011;15267;47.838;12.128;2022-12-16T11:31:55;58.33;;;37.83;;
27925;SDS011;15267;47.838;12.128;2022-12-16T11:34:41;58.95;;;38.67;;
27925;SDS011;15267;47.838;12.128;2022-12-16T11:37:26;61.70;;;39.75;;
27925;SDS011;15267;47.838;12.128;2022-12-16T11:40:13;53.92;;;36.30;;
27925;SDS011;15267;47.838;12.128;2022-12-16T11:43:02;57.72;;;36.65;;
27925;SDS011;15267;47.838;12.128;2022-12-16T11:45:48;64.93;;;41.55;;
27925;SDS011;15267;47.838;12.128;2022-12-16T11:48:42;59.22;;;37.17;;
27925;SDS011;15267;47.838;12.128;2022-12-16T11:51:27;69.15;;;44.53;;
27925;SDS011;15267;47.838;12.128;2022-12-16T11:54:22;68.65;;;44.40;;
27925;SDS011;15267;47.838;12.128;2022-12-16T11:57:15;70.45;;;45.25;;
27925;SDS011;15267;47.838;12.128;2022-12-16T12:00:00;76.00;;;46.50;;
27925;SDS011;15267;47.838;12.128;2022-12-16T12:02:48;73.47;;;47.38;;
27925;SDS011;15267;47.838;12.128;2022-12-16T12:05:36;68.45;;;45.10;;
27925;SDS011;15267;47.838;12.128;2022-12-16T12:11:12;60.67;;;38.53;;
27925;SDS011;15267;47.838;12.128;2022-12-16T12:22:38;49.30;;;32.22;;
27925;SDS011;15267;47.838;12.128;2022-12-16T12:25:25;52.03;;;33.90;;
27925;SDS011;15267;47.838;12.128;2022-12-16T12:42:53;53.00;;;33.67;;
27925;SDS011;15267;47.838;12.128;2022-12-16T12:48:38;54.60;;;35.05;;
27925;SDS011;15267;47.838;12.128;2022-12-16T12:54:32;57.22;;;36.38;;
27925;SDS011;15267;47.838;12.128;2022-12-16T12:57:20;54.47;;;35.50;;
27925;SDS011;15267;47.838;12.128;2022-12-16T13:00:19;53.97;;;34.67;;
27925;SDS011;15267;47.838;12.128;2022-12-16T13:05:55;52.30;;;34.00;;
27925;SDS011;15267;47.838;12.128;2022-12-16T13:08:43;55.80;;;36.33;;
27925;SDS011;15267;47.838;12.128;2022-12-16T13:11:28;56.55;;;36.55;;
27925;SDS011;15267;47.838;12.128;2022-12-16T13:17:16;56.38;;;36.88;;
27925;SDS011;15267;47.838;12.128;2022-12-16T13:20:02;61.75;;;37.88;;
27925;SDS011;15267;47.838;12.128;2022-12-16T13:22:47;59.85;;;39.92;;
27925;SDS011;15267;47.838;12.128;2022-12-16T13:28:20;58.42;;;39.08;;
27925;SDS011;15267;47.838;12.128;2022-12-16T13:31:05;61.70;;;40.78;;
27925;SDS011;15267;47.838;12.128;2022-12-16T13:34:04;63.90;;;41.45;;
27925;SDS011;15267;47.838;12.128;2022-12-16T13:36:53;61.75;;;40.22;;
27925;SDS011;15267;47.838;12.128;2022-12-16T13:39:39;67.20;;;43.47;;
27925;SDS011;15267;47.838;12.128;2022-12-16T13:42:31;65.00;;;43.08;;
27925;SDS011;15267;47.838;12.128;2022-12-16T13:45:32;63.63;;;41.40;;
27925;SDS011;15267;47.838;12.128;2022-12-16T13:48:29;59.28;;;39.05;;
27925;SDS011;15267;47.838;12.128;2022-12-16T13:54:17;61.38;;;40.83;;
27925;SDS011;15267;47.838;12.128;2022-12-16T13:57:02;59.85;;;38.28;;
27925;SDS011;15267;47.838;12.128;2022-12-16T13:59:48;61.35;;;39.38;;
27925;SDS011;15267;47.838;12.128;2022-12-16T14:02:40;59.05;;;37.78;;
27925;SDS011;15267;47.838;12.128;2022-12-16T14:05:30;54.75;;;36.55;;
27925;SDS011;15267;47.838;12.128;2022-12-16T14:08:21;54.17;;;35.78;;
27925;SDS011;15267;47.838;12.128;2022-12-16T14:11:07;63.38;;;39.67;;
27925;SDS011;15267;47.838;12.128;2022-12-16T14:13:59;61.25;;;39.08;;
27925;SDS011;15267;47.838;12.128;2022-12-16T14:22:29;65.72;;;41.80;;
27925;SDS011;15267;47.838;12.128;2022-12-16T14:25:19;64.15;;;40.10;;
27925;SDS011;15267;47.838;12.128;2022-12-16T14:28:13;60.42;;;39.70;;
27925;SDS011;15267;47.838;12.128;2022-12-16T14:34:10;61.20;;;40.10;;
27925;SDS011;15267;47.838;12.128;2022-12-16T14:36:55;61.67;;;40.40;;
27925;SDS011;15267;47.838;12.128;2022-12-16T14:39:40;66.38;;;41.45;;
27925;SDS011;15267;47.838;12.128;2022-12-16T14:42:25;64.13;;;40.90;;
27925;SDS011;15267;47.838;12.128;2022-12-16T14:45:30;58.72;;;38.15;;
27925;SDS011;15267;47.838;12.128;2022-12-16T14:51:44;62.25;;;40.15;;
27925;SDS011;15267;47.838;12.128;2022-12-16T14:54:24;64.70;;;42.22;;
27925;SDS011;15267;47.838;12.128;2022-12-16T14:57:10;62.60;;;40.72;;
27925;SDS011;15267;47.838;12.128;2022-12-16T15:00:04;68.50;;;43.75;;
27925;SDS011;15267;47.838;12.128;2022-12-16T15:02:59;59.67;;;39.55;;
27925;SDS011;15267;47.838;12.128;2022-12-16T15:05:44;60.13;;;39.60;;
27925;SDS011;15267;47.838;12.128;2022-12-16T15:08:34;53.15;;;34.30;;
27925;SDS011;15267;47.838;12.128;2022-12-16T15:11:19;58.15;;;35.85;;
27925;SDS011;15267;47.838;12.128;2022-12-16T15:14:06;59.60;;;36.35;;
27925;SDS011;15267;47.838;12.128;2022-12-16T15:16:53;54.42;;;35.55;;
27925;SDS011;15267;47.838;12.128;2022-12-16T15:19:45;57.00;;;37.15;;
27925;SDS011;15267;47.838;12.128;2022-12-16T15:22:31;60.92;;;38.88;;
27925;SDS011;15267;47.838;12.128;2022-12-16T15:25:17;64.65;;;41.28;;
27925;SDS011;15267;47.838;12.128;2022-12-16T15:28:02;67.07;;;41.20;;
27925;SDS011;15267;47.838;12.128;2022-12-16T15:30:47;56.50;;;38.25;;
27925;SDS011;15267;47.838;12.128;2022-12-16T15:33:33;59.47;;;37.80;;
27925;SDS011;15267;47.838;12.128;2022-12-16T15:36:22;58.00;;;38.65;;
27925;SDS011;15267;47.838;12.128;2022-12-16T15:39:08;63.38;;;39.80;;
27925;SDS011;15267;47.838;12.128;2022-12-16T15:41:53;61.33;;;39.08;;
27925;SDS011;15267;47.838;12.128;2022-12-16T15:44:39;60.20;;;38.50;;
27925;SDS011;15267;47.838;12.128;2022-12-16T15:47:32;58.50;;;37.90;;
27925;SDS011;15267;47.838;12.128;2022-12-16T15:50:19;63.20;;;39.03;;
27925;SDS011;15267;47.838;12.128;2022-12-16T15:55:58;64.07;;;41.20;;
27925;SDS011;15267;47.838;12.128;2022-12-16T15:58:42;61.58;;;40.55;;
27925;SDS011;15267;47.838;12.128;2022-12-16T16:01:27;67.22;;;41.97;;
27925;SDS011;15267;47.838;12.128;2022-12-16T16:04:20;63.08;;;40.50;;
27925;SDS011;15267;47.838;12.128;2022-12-16T16:07:12;61.55;;;37.88;;
27925;SDS011;15267;47.838;12.128;2022-12-16T16:12:51;57.92;;;35.88;;
27925;SDS011;15267;47.838;12.128;2022-12-16T16:15:36;58.88;;;38.10;;
27925;SDS011;15267;47.838;12.128;2022-12-16T16:18:20;56.33;;;35.38;;
27925;SDS011;15267;47.838;12.128;2022-12-16T16:21:05;56.90;;;37.20;;
27925;SDS011;15267;47.838;12.128;2022-12-16T16:23:49;57.17;;;36.05;;
27925;SDS011;15267;47.838;12.128;2022-12-16T16:26:34;54.97;;;35.90;;
27925;SDS011;15267;47.838;12.128;2022-12-16T16:29:18;59.58;;;37.15;;
27925;SDS011;15267;47.838;12.128;2022-12-16T16:32:03;56.40;;;34.17;;
27925;SDS011;15267;47.838;12.128;2022-12-16T16:34:47;50.08;;;33.17;;
27925;SDS011;15267;47.838;12.128;2022-12-16T16:37:32;49.00;;;32.25;;
27925;SDS011;15267;47.838;12.128;2022-12-16T16:40:18;53.53;;;32.70;;
27925;SDS011;15267;47.838;12.128;2022-12-16T16:43:05;50.95;;;33.10;;
27925;SDS011;15267;47.838;12.128;2022-12-16T16:45:53;49.72;;;32.47;;
27925;SDS011;15267;47.838;12.128;2022-12-16T16:48:39;50.80;;;32.47;;
27925;SDS011;15267;47.838;12.128;2022-12-16T16:51:24;57.47;;;36.03;;
27925;SDS011;15267;47.838;12.128;2022-12-16T16:54:09;54.70;;;35.25;;
27925;SDS011;15267;47.838;12.128;2022-12-16T16:56:53;54.03;;;33.92;;
27925;SDS011;15267;47.838;12.128;2022-12-16T16:59:38;54.85;;;35.17;;
27925;SDS011;15267;47.838;12.128;2022-12-16T17:02:22;58.78;;;37.03;;
27925;SDS011;15267;47.838;12.128;2022-12-16T17:05:09;55.28;;;35.35;;
27925;SDS011;15267;47.838;12.128;2022-12-16T17:07:53;50.08;;;32.53;;
27925;SDS011;15267;47.838;12.128;2022-12-16T17:10:38;48.25;;;30.95;;
27925;SDS011;15267;47.838;12.128;2022-12-16T17:13:22;50.47;;;30.58;;
27925;SDS011;15267;47.838;12.128;2022-12-16T17:16:11;49.90;;;31.70;;
27925;SDS011;15267;47.838;12.128;2022-12-16T17:18:56;49.35;;;30.88;;